sensor_id;sensor_type;location;lat;lon;timestamp;pressure;altitude;pressure_sealevel;temperature;humidity
26539;BME280;14205;43.200;24.170;2023-06-22T00:00:42;118693.16;;;-137.44;100.00
26539;BME280;14205;43.200;24.170;2023-06-22T00:03:07;118693.16;;;-137.44;100.00
26539;BME280;14205;43.200;24.170;2023-06-22T00:05:33;118693.16;;;-137.44;100.00
26539;BME280;14205;43.200;24.170;2023-06-22T00:08:03;118693.16;;;-137.44;100.00
26539;BME280;14205;43.200;24.170;2023-06-22T00:10:29;118693.16;;;-137.44;100.00
26539;BME280;14205;43.200;24.170;2023-06-22T00:12:54;118693.16;;;-137.44;100.00
26539;BME280;14205;43.200;24.170;2023-06-22T00:15:20;118693.16;;;-137.44;100.00
26539;BME280;14205;43.200;24.170;2023-06-22T00:17:45;118693.16;;;-137.44;100.00
26539;BME280;14205;43.200;24.170;2023-06-22T00:20:11;118693.16;;;-137.44;100.00
26539;BME280;14205;43.200;24.170;2023-06-22T00:22:36;118693.16;;;-137.44;100.00
26539;BME280;14205;43.200;24.170;2023-06-22T00:25:06;118693.16;;;-137.44;100.00
26539;BME280;14205;43.200;24.170;2023-06-22T00:27:32;118693.16;;;-137.44;100.00
26539;BME280;14205;43.200;24.170;2023-06-22T00:29:57;118693.16;;;-137.44;100.00
26539;BME280;14205;43.200;24.170;2023-06-22T00:32:22;118693.16;;;-137.44;100.00
26539;BME280;14205;43.200;24.170;2023-06-22T00:34:48;118693.16;;;-137.44;100.00
26539;BME280;14205;43.200;24.170;2023-06-22T00:37:13;118693.16;;;-137.44;100.00
26539;BME280;14205;43.200;24.170;2023-06-22T00:39:39;118693.16;;;-137.44;100.00
26539;BME280;14205;43.200;24.170;2023-06-22T00:42:04;118693.16;;;-137.44;100.00
26539;BME280;14205;43.200;24.170;2023-06-22T00:44:30;118693.16;;;-137.44;100.00
26539;BME280;14205;43.200;24.170;2023-06-22T00:46:55;118693.16;;;-137.44;100.00
26539;BME280;14205;43.200;24.170;2023-06-22T00:49:21;118693.16;;;-137.44;100.00
26539;BME280;14205;43.200;24.170;2023-06-22T00:51:46;118693.16;;;-137.44;100.00
26539;BME280;14205;43.200;24.170;2023-06-22T00:54:13;118693.16;;;-137.44;100.00
26539;BME280;14205;43.200;24.170;2023-06-22T00:56:40;118693.16;;;-137.44;100.00
26539;BME280;14205;43.200;24.170;2023-06-22T00:59:06;118693.16;;;-137.44;100.00
26539;BME280;14205;43.200;24.170;2023-06-22T01:01:31;118693.16;;;-137.44;100.00
26539;BME280;14205;43.200;24.170;2023-06-22T01:03:57;118693.16;;;-137.44;100.00
26539;BME280;14205;43.200;24.170;2023-06-22T01:06:31;118693.16;;;-137.44;100.00
26539;BME280;14205;43.200;24.170;2023-06-22T01:09:15;118693.16;;;-137.44;100.00
26539;BME280;14205;43.200;24.170;2023-06-22T01:11:54;118693.16;;;-137.44;100.00
26539;BME280;14205;43.200;24.170;2023-06-22T01:14:27;118693.16;;;-137.44;100.00
26539;BME280;14205;43.200;24.170;2023-06-22T01:16:54;118693.16;;;-137.44;100.00
26539;BME280;14205;43.200;24.170;2023-06-22T01:22:00;118693.16;;;-137.44;100.00
26539;BME280;14205;43.200;24.170;2023-06-22T01:24:37;118693.16;;;-137.44;100.00
26539;BME280;14205;43.200;24.170;2023-06-22T01:29:35;118693.16;;;-137.44;100.00
26539;BME280;14205;43.200;24.170;2023-06-22T01:32:03;118693.16;;;-137.44;100.00
26539;BME280;14205;43.200;24.170;2023-06-22T01:34:31;118693.16;;;-137.44;100.00
26539;BME280;14205;43.200;24.170;2023-06-22T01:36:57;118693.16;;;-137.44;100.00
26539;BME280;14205;43.200;24.170;2023-06-22T01:39:24;118693.16;;;-137.44;100.00
26539;BME280;14205;43.200;24.170;2023-06-22T01:41:50;118693.16;;;-137.44;100.00
26539;BME280;14205;43.200;24.170;2023-06-22T01:44:16;118693.16;;;-137.44;100.00
26539;BME280;14205;43.200;24.170;2023-06-22T01:46:42;118693.16;;;-137.44;100.00
26539;BME280;14205;43.200;24.170;2023-06-22T01:49:08;118693.16;;;-137.44;100.00
26539;BME280;14205;43.200;24.170;2023-06-22T01:51:33;118693.16;;;-137.44;100.00
26539;BME280;14205;43.200;24.170;2023-06-22T01:53:59;118693.16;;;-137.44;100.00
26539;BME280;14205;43.200;24.170;2023-06-22T01:56:26;118693.16;;;-137.44;100.00
26539;BME280;14205;43.200;24.170;2023-06-22T01:59:12;118693.16;;;-137.44;100.00
26539;BME280;14205;43.200;24.170;2023-06-22T02:01:55;118693.16;;;-137.44;100.00
26539;BME280;14205;43.200;24.170;2023-06-22T02:04:28;118693.16;;;-137.44;100.00
26539;BME280;14205;43.200;24.170;2023-06-22T02:06:59;118693.16;;;-137.44;100.00
26539;BME280;14205;43.200;24.170;2023-06-22T02:09:29;118693.16;;;-137.44;100.00
26539;BME280;14205;43.200;24.170;2023-06-22T02:11:56;118693.16;;;-137.44;100.00
26539;BME280;14205;43.200;24.170;2023-06-22T02:14:23;118693.16;;;-137.44;100.00
26539;BME280;14205;43.200;24.170;2023-06-22T02:16:50;118693.16;;;-137.44;100.00
26539;BME280;14205;43.200;24.170;2023-06-22T02:19:16;118693.16;;;-137.44;100.00
26539;BME280;14205;43.200;24.170;2023-06-22T02:21:44;118693.16;;;-137.44;100.00
26539;BME280;14205;43.200;24.170;2023-06-22T02:24:10;118693.16;;;-137.44;100.00
26539;BME280;14205;43.200;24.170;2023-06-22T02:26:36;118693.16;;;-137.44;100.00
26539;BME280;14205;43.200;24.170;2023-06-22T02:29:03;118693.16;;;-137.44;100.00
26539;BME280;14205;43.200;24.170;2023-06-22T02:31:29;118693.16;;;-137.44;100.00
26539;BME280;14205;43.200;24.170;2023-06-22T02:33:58;118693.16;;;-137.44;100.00
26539;BME280;14205;43.200;24.170;2023-06-22T02:36:24;118693.16;;;-137.44;100.00
26539;BME280;14205;43.200;24.170;2023-06-22T02:38:52;118693.16;;;-137.44;100.00
26539;BME280;14205;43.200;24.170;2023-06-22T02:41:18;118693.16;;;-137.44;100.00
26539;BME280;14205;43.200;24.170;2023-06-22T02:43:45;118693.16;;;-137.44;100.00
26539;BME280;14205;43.200;24.170;2023-06-22T02:46:11;118693.16;;;-137.44;100.00
26539;BME280;14205;43.200;24.170;2023-06-22T02:48:36;118693.16;;;-137.44;100.00
26539;BME280;14205;43.200;24.170;2023-06-22T02:51:02;118693.16;;;-137.44;100.00
26539;BME280;14205;43.200;24.170;2023-06-22T02:53:27;118693.16;;;-137.44;100.00
26539;BME280;14205;43.200;24.170;2023-06-22T02:55:53;118693.16;;;-137.44;100.00
26539;BME280;14205;43.200;24.170;2023-06-22T02:58:18;118693.16;;;-137.44;100.00
26539;BME280;14205;43.200;24.170;2023-06-22T03:00:44;118693.16;;;-137.44;100.00
26539;BME280;14205;43.200;24.170;2023-06-22T03:03:09;118693.16;;;-137.44;100.00
26539;BME280;14205;43.200;24.170;2023-06-22T03:05:34;118693.16;;;-137.44;100.00
26539;BME280;14205;43.200;24.170;2023-06-22T03:08:00;118693.16;;;-137.44;100.00
26539;BME280;14205;43.200;24.170;2023-06-22T03:10:26;118693.16;;;-137.44;100.00
26539;BME280;14205;43.200;24.170;2023-06-22T03:12:51;118693.16;;;-137.44;100.00
26539;BME280;14205;43.200;24.170;2023-06-22T03:15:17;118693.16;;;-137.44;100.00
26539;BME280;14205;43.200;24.170;2023-06-22T03:17:42;118693.16;;;-137.44;100.00
26539;BME280;14205;43.200;24.170;2023-06-22T03:20:09;118693.16;;;-137.44;100.00
26539;BME280;14205;43.200;24.170;2023-06-22T03:22:39;118693.16;;;-137.44;100.00
26539;BME280;14205;43.200;24.170;2023-06-22T03:25:05;118693.16;;;-137.44;100.00
26539;BME280;14205;43.200;24.170;2023-06-22T03:27:37;118693.16;;;-137.44;100.00
26539;BME280;14205;43.200;24.170;2023-06-22T03:30:03;118693.16;;;-137.44;100.00
26539;BME280;14205;43.200;24.170;2023-06-22T03:32:28;118693.16;;;-137.44;100.00
26539;BME280;14205;43.200;24.170;2023-06-22T03:34:54;118693.16;;;-137.44;100.00
26539;BME280;14205;43.200;24.170;2023-06-22T03:37:19;118693.16;;;-137.44;100.00
26539;BME280;14205;43.200;24.170;2023-06-22T03:39:45;118693.16;;;-137.44;100.00
26539;BME280;14205;43.200;24.170;2023-06-22T03:42:10;118693.16;;;-137.44;100.00
26539;BME280;14205;43.200;24.170;2023-06-22T03:44:36;118693.16;;;-137.44;100.00
26539;BME280;14205;43.200;24.170;2023-06-22T03:47:03;118693.16;;;-137.44;100.00
26539;BME280;14205;43.200;24.170;2023-06-22T03:49:28;118693.16;;;-137.44;100.00
26539;BME280;14205;43.200;24.170;2023-06-22T03:51:54;118693.16;;;-137.44;100.00
26539;BME280;14205;43.200;24.170;2023-06-22T03:54:19;118693.16;;;-137.44;100.00
26539;BME280;14205;43.200;24.170;2023-06-22T03:56:45;118693.16;;;-137.44;100.00
26539;BME280;14205;43.200;24.170;2023-06-22T03:59:10;118693.16;;;-137.44;100.00
26539;BME280;14205;43.200;24.170;2023-06-22T04:01:36;118693.16;;;-137.44;100.00
26539;BME280;14205;43.200;24.170;2023-06-22T04:04:02;118693.16;;;-137.44;100.00
26539;BME280;14205;43.200;24.170;2023-06-22T04:06:27;118693.16;;;-137.44;100.00
26539;BME280;14205;43.200;24.170;2023-06-22T04:08:52;118693.16;;;-137.44;100.00
26539;BME280;14205;43.200;24.170;2023-06-22T04:11:18;118693.16;;;-137.44;100.00
26539;BME280;14205;43.200;24.170;2023-06-22T04:13:44;118693.16;;;-137.44;100.00
26539;BME280;14205;43.200;24.170;2023-06-22T04:16:09;118693.16;;;-137.44;100.00
26539;BME280;14205;43.200;24.170;2023-06-22T04:18:35;118693.16;;;-137.44;100.00
26539;BME280;14205;43.200;24.170;2023-06-22T04:21:01;118693.16;;;-137.44;100.00
26539;BME280;14205;43.200;24.170;2023-06-22T04:23:27;118693.16;;;-137.44;100.00
26539;BME280;14205;43.200;24.170;2023-06-22T04:25:52;118693.16;;;-137.44;100.00
26539;BME280;14205;43.200;24.170;2023-06-22T04:28:18;118693.16;;;-137.44;100.00
26539;BME280;14205;43.200;24.170;2023-06-22T04:30:43;118693.16;;;-137.44;100.00
26539;BME280;14205;43.200;24.170;2023-06-22T04:33:16;118693.16;;;-137.44;100.00
26539;BME280;14205;43.200;24.170;2023-06-22T04:35:41;118693.16;;;-137.44;100.00
26539;BME280;14205;43.200;24.170;2023-06-22T04:38:07;118693.16;;;-137.44;100.00
26539;BME280;14205;43.200;24.170;2023-06-22T04:40:33;118693.16;;;-137.44;100.00
26539;BME280;14205;43.200;24.170;2023-06-22T04:42:59;118693.16;;;-137.44;100.00
26539;BME280;14205;43.200;24.170;2023-06-22T04:45:28;118693.16;;;-137.44;100.00
26539;BME280;14205;43.200;24.170;2023-06-22T04:47:54;118693.16;;;-137.44;100.00
26539;BME280;14205;43.200;24.170;2023-06-22T04:50:20;118693.16;;;-137.44;100.00
26539;BME280;14205;43.200;24.170;2023-06-22T04:52:47;118691.09;;;-137.44;100.00
26539;BME280;14205;43.200;24.170;2023-06-22T04:55:13;118691.09;;;-137.44;100.00
26539;BME280;14205;43.200;24.170;2023-06-22T04:57:38;118691.09;;;-137.44;100.00
26539;BME280;14205;43.200;24.170;2023-06-22T05:00:05;118429.53;;;-137.44;100.00
26539;BME280;14205;43.200;24.170;2023-06-22T05:02:41;116860.50;;;-137.44;100.00
26539;BME280;14205;43.200;24.170;2023-06-22T05:05:07;117121.94;;;-137.44;100.00
26539;BME280;14205;43.200;24.170;2023-06-22T05:07:36;118429.53;;;-137.44;100.00
26539;BME280;14205;43.200;24.170;2023-06-22T05:10:02;118693.16;;;-137.44;100.00
26539;BME280;14205;43.200;24.170;2023-06-22T05:12:29;118693.16;;;-137.44;100.00
26539;BME280;14205;43.200;24.170;2023-06-22T05:14:55;118693.16;;;-137.44;100.00
26539;BME280;14205;43.200;24.170;2023-06-22T05:17:20;118693.16;;;-137.44;100.00
26539;BME280;14205;43.200;24.170;2023-06-22T05:19:46;118693.16;;;-137.44;100.00
26539;BME280;14205;43.200;24.170;2023-06-22T05:22:16;118691.09;;;-137.44;100.00
26539;BME280;14205;43.200;24.170;2023-06-22T05:24:42;116599.06;;;-137.44;100.00
26539;BME280;14205;43.200;24.170;2023-06-22T05:27:09;111374.34;;;-137.44;100.00
26539;BME280;14205;43.200;24.170;2023-06-22T05:29:34;112940.94;;;-137.44;100.00
26539;BME280;14205;43.200;24.170;2023-06-22T05:32:00;112157.56;;;-137.44;100.00
26539;BME280;14205;43.200;24.170;2023-06-22T05:34:26;111374.34;;;-137.44;100.00
26539;BME280;14205;43.200;24.170;2023-06-22T05:36:51;107982.47;;;-137.44;100.00
26539;BME280;14205;43.200;24.170;2023-06-22T05:39:17;111896.47;;;-137.44;100.00
26539;BME280;14205;43.200;24.170;2023-06-22T05:41:42;114769.53;;;-137.44;100.00
26539;BME280;14205;43.200;24.170;2023-06-22T05:44:08;112940.94;;;-137.44;100.00
26539;BME280;14205;43.200;24.170;2023-06-22T05:46:33;112157.56;;;-137.44;100.00
26539;BME280;14205;43.200;24.170;2023-06-22T05:48:59;113985.72;;;-137.44;100.00
26539;BME280;14205;43.200;24.170;2023-06-22T05:51:25;111896.47;;;-137.44;100.00
26539;BME280;14205;43.200;24.170;2023-06-22T05:53:50;107200.22;;;-137.44;100.00
26539;BME280;14205;43.200;24.170;2023-06-22T05:56:16;101989.53;;;-137.44;100.00
26539;BME280;14205;43.200;24.170;2023-06-22T05:58:42;93668.63;;;-137.44;100.00
26539;BME280;14205;43.200;24.170;2023-06-22T06:01:07;96786.63;;;-137.44;100.00
26539;BME280;14205;43.200;24.170;2023-06-22T06:03:33;92370.28;;;-137.44;100.00
26539;BME280;14205;43.200;24.170;2023-06-22T06:05:58;90034.50;;;-137.44;100.00
26539;BME280;14205;43.200;24.170;2023-06-22T06:08:25;94447.88;;;-137.44;100.00
26539;BME280;14205;43.200;24.170;2023-06-22T06:10:50;86145.03;;;-137.44;100.00
26539;BME280;14205;43.200;24.170;2023-06-22T06:13:18;90812.91;;;-137.44;100.00
26539;BME280;14205;43.200;24.170;2023-06-22T06:15:43;95746.97;;;-137.44;100.00
26539;BME280;14205;43.200;24.170;2023-06-22T06:18:09;92370.28;;;-137.44;100.00
26539;BME280;14205;43.200;24.170;2023-06-22T06:20:34;96006.88;;;-137.44;100.00
26539;BME280;14205;43.200;24.170;2023-06-22T06:23:00;89256.25;;;-137.44;100.00
26539;BME280;14205;43.200;24.170;2023-06-22T06:25:27;87441.03;;;-137.44;100.00
26539;BME280;14205;43.200;24.170;2023-06-22T06:27:53;88478.19;;;-137.44;100.00
26539;BME280;14205;43.200;24.170;2023-06-22T06:30:20;88478.19;;;-137.44;100.00
26539;BME280;14205;43.200;24.170;2023-06-22T06:32:46;92629.91;;;-137.44;100.00
26539;BME280;14205;43.200;24.170;2023-06-22T06:35:12;80965.88;;;-137.44;100.00
26539;BME280;14205;43.200;24.170;2023-06-22T06:37:40;92629.91;;;-137.44;100.00
26539;BME280;14205;43.200;24.170;2023-06-22T06:40:07;92110.69;;;-137.44;100.00
26539;BME280;14205;43.200;24.170;2023-06-22T06:42:37;80707.13;;;-137.44;100.00
26539;BME280;14205;43.200;24.170;2023-06-22T06:45:04;74761.16;;;-137.44;100.00
26539;BME280;14205;43.200;24.170;2023-06-22T06:47:30;72695.41;;;-137.44;100.00
26539;BME280;14205;43.200;24.170;2023-06-22T06:49:55;66247.97;;;-137.44;100.00
26539;BME280;14205;43.200;24.170;2023-06-22T06:52:21;70114.97;;;-137.44;100.00
26539;BME280;14205;43.200;24.170;2023-06-22T06:54:46;68825.50;;;-137.44;100.00
26539;BME280;14205;43.200;24.170;2023-06-22T06:57:12;60069.88;;;-137.44;100.00
26539;BME280;14205;43.200;24.170;2023-06-22T06:59:38;56577.56;;;-137.44;100.00
26539;BME280;14205;43.200;24.170;2023-06-22T07:02:04;47348.97;;;-137.44;100.00
26539;BME280;14205;43.200;24.170;2023-06-22T07:04:30;62900.13;;;-137.44;100.00
26539;BME280;14205;43.200;24.170;2023-06-22T07:06:55;45992.06;;;-137.44;100.00
26539;BME280;14205;43.200;24.170;2023-06-22T07:09:21;43845.72;;;-137.44;100.00
26539;BME280;14205;43.200;24.170;2023-06-22T07:11:46;43697.75;;;-137.44;100.00
26539;BME280;14205;43.200;24.170;2023-06-22T07:14:11;43717.75;;;-137.44;100.00
26539;BME280;14205;43.200;24.170;2023-06-22T07:16:37;43773.75;;;-137.44;100.00
26539;BME280;14205;43.200;24.170;2023-06-22T07:19:02;43657.78;;;-137.44;98.20
26539;BME280;14205;43.200;24.170;2023-06-22T07:21:28;43595.78;;;-137.44;100.00
26539;BME280;14205;43.200;24.170;2023-06-22T07:23:53;43545.81;;;-137.44;99.83
26539;BME280;14205;43.200;24.170;2023-06-22T07:26:20;43539.81;;;-137.44;100.00
26539;BME280;14205;43.200;24.170;2023-06-22T07:28:45;44033.72;;;-137.44;100.00
26539;BME280;14205;43.200;24.170;2023-06-22T07:31:11;45609.91;;;-137.44;100.00
26539;BME280;14205;43.200;24.170;2023-06-22T07:33:36;44507.69;;;-137.44;100.00
26539;BME280;14205;43.200;24.170;2023-06-22T07:36:02;46442.28;;;-137.44;100.00
26539;BME280;14205;43.200;24.170;2023-06-22T07:38:32;50996.09;;;-137.44;100.00
26539;BME280;14205;43.200;24.170;2023-06-22T07:40:58;44561.69;;;-137.44;100.00
26539;BME280;14205;43.200;24.170;2023-06-22T07:43:23;44917.72;;;-137.44;100.00
26539;BME280;14205;43.200;24.170;2023-06-22T07:45:49;44347.69;;;-137.44;100.00
26539;BME280;14205;43.200;24.170;2023-06-22T07:48:21;51238.56;;;-137.44;100.00
26539;BME280;14205;43.200;24.170;2023-06-22T07:50:47;51102.31;;;-137.44;100.00
26539;BME280;14205;43.200;24.170;2023-06-22T07:53:13;45063.75;;;-137.44;100.00
26539;BME280;14205;43.200;24.170;2023-06-22T07:55:38;44797.72;;;-137.44;100.00
26539;BME280;14205;43.200;24.170;2023-06-22T07:58:04;48982.78;;;-137.44;100.00
26539;BME280;14205;43.200;24.170;2023-06-22T08:00:29;47074.72;;;-137.44;100.00
26539;BME280;14205;43.200;24.170;2023-06-22T08:02:55;45151.75;;;-137.44;100.00
26539;BME280;14205;43.200;24.170;2023-06-22T08:05:20;44275.69;;;-137.44;100.00
26539;BME280;14205;43.200;24.170;2023-06-22T08:07:46;44475.69;;;-137.44;100.00
26539;BME280;14205;43.200;24.170;2023-06-22T08:10:12;46004.06;;;-137.44;100.00
26539;BME280;14205;43.200;24.170;2023-06-22T08:12:38;47086.75;;;-137.44;100.00
26539;BME280;14205;43.200;24.170;2023-06-22T08:15:04;43969.72;;;-137.44;100.00
26539;BME280;14205;43.200;24.170;2023-06-22T08:17:30;43301.88;;;-137.44;100.00
26539;BME280;14205;43.200;24.170;2023-06-22T08:19:56;43301.88;;;-137.44;100.00
26539;BME280;14205;43.200;24.170;2023-06-22T08:22:22;43909.72;;;-137.44;100.00
26539;BME280;14205;43.200;24.170;2023-06-22T08:24:47;43473.81;;;-137.44;100.00
26539;BME280;14205;43.200;24.170;2023-06-22T08:27:13;43907.72;;;-137.44;100.00
26539;BME280;14205;43.200;24.170;2023-06-22T08:29:40;45321.81;;;-137.44;100.00
26539;BME280;14205;43.200;24.170;2023-06-22T08:32:08;43357.84;;;-137.44;100.00
26539;BME280;14205;43.200;24.170;2023-06-22T08:34:34;43049.97;;;-137.44;100.00
26539;BME280;14205;43.200;24.170;2023-06-22T08:37:00;43365.84;;;-137.44;100.00
26539;BME280;14205;43.200;24.170;2023-06-22T08:39:25;43287.88;;;-137.44;100.00
26539;BME280;14205;43.200;24.170;2023-06-22T08:41:51;43945.72;;;-137.44;100.00
26539;BME280;14205;43.200;24.170;2023-06-22T08:44:18;43197.91;;;-137.44;100.00
26539;BME280;14205;43.200;24.170;2023-06-22T08:46:43;43209.91;;;-137.44;100.00
26539;BME280;14205;43.200;24.170;2023-06-22T08:49:09;43111.94;;;-137.44;100.00
26539;BME280;14205;43.200;24.170;2023-06-22T08:51:35;42896.03;;;-137.44;97.08
26539;BME280;14205;43.200;24.170;2023-06-22T08:54:01;42874.03;;;-137.44;95.59
26539;BME280;14205;43.200;24.170;2023-06-22T08:56:26;42848.06;;;-137.44;91.50
26539;BME280;14205;43.200;24.170;2023-06-22T08:58:51;43235.91;;;-137.44;83.17
26539;BME280;14205;43.200;24.170;2023-06-22T09:01:17;43469.81;;;-137.44;82.29
26539;BME280;14205;43.200;24.170;2023-06-22T09:03:42;43649.78;;;-137.44;80.74
26539;BME280;14205;43.200;24.170;2023-06-22T09:06:08;43253.88;;;-137.44;87.03
26539;BME280;14205;43.200;24.170;2023-06-22T09:08:37;43185.91;;;-137.44;90.09
26539;BME280;14205;43.200;24.170;2023-06-22T09:11:02;43303.88;;;-137.44;86.85
26539;BME280;14205;43.200;24.170;2023-06-22T09:13:30;42982.00;;;-137.44;87.44
26539;BME280;14205;43.200;24.170;2023-06-22T09:15:55;43283.88;;;-137.44;83.23
26539;BME280;14205;43.200;24.170;2023-06-22T09:18:21;43457.81;;;-137.44;78.92
26539;BME280;14205;43.200;24.170;2023-06-22T09:20:46;43085.94;;;-137.44;84.91
26539;BME280;14205;43.200;24.170;2023-06-22T09:23:12;43081.94;;;-137.44;88.12
26539;BME280;14205;43.200;24.170;2023-06-22T09:25:37;43275.88;;;-137.44;87.00
26539;BME280;14205;43.200;24.170;2023-06-22T09:28:03;43405.84;;;-137.44;81.29
26539;BME280;14205;43.200;24.170;2023-06-22T09:30:28;43601.78;;;-137.44;75.12
26539;BME280;14205;43.200;24.170;2023-06-22T09:32:54;44203.69;;;-137.44;65.45
26539;BME280;14205;43.200;24.170;2023-06-22T09:35:19;44131.69;;;-137.44;68.28
26539;BME280;14205;43.200;24.170;2023-06-22T09:37:45;43917.72;;;-137.44;69.22
26539;BME280;14205;43.200;24.170;2023-06-22T09:40:11;43471.81;;;-137.44;75.98
26539;BME280;14205;43.200;24.170;2023-06-22T09:42:38;43377.84;;;-137.44;77.08
26539;BME280;14205;43.200;24.170;2023-06-22T09:45:04;43683.75;;;-137.44;73.23
26539;BME280;14205;43.200;24.170;2023-06-22T09:47:30;43931.72;;;-137.44;73.55
26539;BME280;14205;43.200;24.170;2023-06-22T09:49:56;43413.84;;;-137.44;83.96
26539;BME280;14205;43.200;24.170;2023-06-22T09:52:22;43911.72;;;-137.44;74.00
26539;BME280;14205;43.200;24.170;2023-06-22T09:54:47;43449.81;;;-137.44;76.00
26539;BME280;14205;43.200;24.170;2023-06-22T09:57:13;43545.81;;;-137.44;71.87
26539;BME280;14205;43.200;24.170;2023-06-22T09:59:38;43967.72;;;-137.44;69.90
26539;BME280;14205;43.200;24.170;2023-06-22T10:02:06;43825.75;;;-137.44;71.12
26539;BME280;14205;43.200;24.170;2023-06-22T10:04:31;44409.69;;;-137.44;64.91
26539;BME280;14205;43.200;24.170;2023-06-22T10:06:56;44263.69;;;-137.44;66.00
26539;BME280;14205;43.200;24.170;2023-06-22T10:09:22;44785.72;;;-137.44;61.14
26539;BME280;14205;43.200;24.170;2023-06-22T10:11:47;44609.69;;;-137.44;61.37
26539;BME280;14205;43.200;24.170;2023-06-22T10:14:13;44243.69;;;-137.44;63.99
26539;BME280;14205;43.200;24.170;2023-06-22T10:16:39;44577.69;;;-137.44;60.59
26539;BME280;14205;43.200;24.170;2023-06-22T10:19:06;44489.69;;;-137.44;59.39
26539;BME280;14205;43.200;24.170;2023-06-22T10:21:31;44667.69;;;-137.44;61.42
26539;BME280;14205;43.200;24.170;2023-06-22T10:23:58;44537.69;;;-137.44;62.10
26539;BME280;14205;43.200;24.170;2023-06-22T10:26:24;44393.69;;;-137.44;64.55
26539;BME280;14205;43.200;24.170;2023-06-22T10:28:50;44057.72;;;-137.44;69.06
26539;BME280;14205;43.200;24.170;2023-06-22T10:31:15;43991.72;;;-137.44;65.94
26539;BME280;14205;43.200;24.170;2023-06-22T10:33:42;43559.78;;;-137.44;68.97
26539;BME280;14205;43.200;24.170;2023-06-22T10:36:09;43935.72;;;-137.44;67.66
26539;BME280;14205;43.200;24.170;2023-06-22T10:38:35;44465.69;;;-137.44;61.05
26539;BME280;14205;43.200;24.170;2023-06-22T10:41:00;44007.72;;;-137.44;63.12
26539;BME280;14205;43.200;24.170;2023-06-22T10:43:26;44119.69;;;-137.44;62.72
26539;BME280;14205;43.200;24.170;2023-06-22T10:45:51;43965.72;;;-137.44;65.25
26539;BME280;14205;43.200;24.170;2023-06-22T10:48:17;43977.72;;;-137.44;62.33
26539;BME280;14205;43.200;24.170;2023-06-22T10:50:42;44385.69;;;-137.44;59.94
26539;BME280;14205;43.200;24.170;2023-06-22T10:53:08;44569.69;;;-137.44;59.00
26539;BME280;14205;43.200;24.170;2023-06-22T10:55:33;44709.69;;;-137.44;53.88
26539;BME280;14205;43.200;24.170;2023-06-22T10:57:58;44845.72;;;-137.44;55.70
26539;BME280;14205;43.200;24.170;2023-06-22T11:00:24;45021.75;;;-137.44;54.98
26539;BME280;14205;43.200;24.170;2023-06-22T11:02:49;45249.78;;;-137.44;51.10
26539;BME280;14205;43.200;24.170;2023-06-22T11:05:15;44553.69;;;-137.44;55.17
26539;BME280;14205;43.200;24.170;2023-06-22T11:07:43;44749.69;;;-137.44;52.68
26539;BME280;14205;43.200;24.170;2023-06-22T11:10:10;45245.78;;;-137.44;50.29
26539;BME280;14205;43.200;24.170;2023-06-22T11:12:35;44907.72;;;-137.44;52.73
26539;BME280;14205;43.200;24.170;2023-06-22T11:15:01;44889.72;;;-137.44;53.49
26539;BME280;14205;43.200;24.170;2023-06-22T11:17:26;44939.72;;;-137.44;49.32
26539;BME280;14205;43.200;24.170;2023-06-22T11:19:52;44583.69;;;-137.44;51.29
26539;BME280;14205;43.200;24.170;2023-06-22T11:22:17;45073.75;;;-137.44;48.62
26539;BME280;14205;43.200;24.170;2023-06-22T11:24:43;44579.69;;;-137.44;52.73
26539;BME280;14205;43.200;24.170;2023-06-22T11:27:08;44973.72;;;-137.44;49.96
26539;BME280;14205;43.200;24.170;2023-06-22T11:29:34;45041.75;;;-137.44;51.86
26539;BME280;14205;43.200;24.170;2023-06-22T11:31:59;44969.72;;;-137.44;50.70
26539;BME280;14205;43.200;24.170;2023-06-22T11:34:24;44827.72;;;-137.44;53.16
26539;BME280;14205;43.200;24.170;2023-06-22T11:36:50;44673.69;;;-137.44;53.78
26539;BME280;14205;43.200;24.170;2023-06-22T11:39:15;44493.69;;;-137.44;53.52
26539;BME280;14205;43.200;24.170;2023-06-22T11:41:41;44405.69;;;-137.44;57.93
26539;BME280;14205;43.200;24.170;2023-06-22T11:44:07;44233.69;;;-137.44;58.99
26539;BME280;14205;43.200;24.170;2023-06-22T11:46:32;44505.69;;;-137.44;60.35
26539;BME280;14205;43.200;24.170;2023-06-22T11:48:58;43981.72;;;-137.44;60.73
26539;BME280;14205;43.200;24.170;2023-06-22T11:51:23;43837.75;;;-137.44;61.99
26539;BME280;14205;43.200;24.170;2023-06-22T11:53:49;44445.69;;;-137.44;61.15
26539;BME280;14205;43.200;24.170;2023-06-22T11:56:14;44063.72;;;-137.44;61.65
26539;BME280;14205;43.200;24.170;2023-06-22T11:58:40;44129.69;;;-137.44;60.90
26539;BME280;14205;43.200;24.170;2023-06-22T12:01:05;44145.69;;;-137.44;61.49
26539;BME280;14205;43.200;24.170;2023-06-22T12:03:30;44465.69;;;-137.44;54.38
26539;BME280;14205;43.200;24.170;2023-06-22T12:05:56;44505.69;;;-137.44;54.68
26539;BME280;14205;43.200;24.170;2023-06-22T12:08:21;44701.69;;;-137.44;54.59
26539;BME280;14205;43.200;24.170;2023-06-22T12:10:47;44143.69;;;-137.44;58.47
26539;BME280;14205;43.200;24.170;2023-06-22T12:13:12;44641.69;;;-137.44;52.45
26539;BME280;14205;43.200;24.170;2023-06-22T12:15:38;44629.69;;;-137.44;50.77
26539;BME280;14205;43.200;24.170;2023-06-22T12:18:03;44735.69;;;-137.44;49.46